Time;durP1;ratioP1;P1;durP2;ratioP2;P2;SDS_P1;SDS_P2;PMS_P1;PMS_P2;Temp;Humidity;BMP_temperature;BMP_pressure;BME280_temperature;BME280_humidity;BME280_pressure;Samples;Min_cycle;Max_cycle;Signal;HPM_P1;HPM_P2
2023/07/30 00:01:41;;;;;;;8.55;2.10;;;17.70;99.90;;;;;;5093441;28;20078;-46
2023/07/30 00:04:07;;;;;;;7.88;1.70;;;17.70;99.90;;;;;;5095693;28;20075;-46
2023/07/30 00:06:32;;;;;;;6.43;2.63;;;17.70;99.90;;;;;;5096190;28;20094;-47
2023/07/30 00:08:58;;;;;;;9.38;2.08;;;17.70;99.90;;;;;;5097155;28;20043;-44
2023/07/30 00:11:24;;;;;;;5.57;1.60;;;17.70;99.90;;;;;;5097346;28;20051;-45
2023/07/30 00:13:49;;;;;;;7.03;2.10;;;17.70;99.90;;;;;;5096150;28;20048;-46
2023/07/30 00:16:15;;;;;;;9.23;2.15;;;17.70;99.90;;;;;;5096160;28;20083;-45
2023/07/30 00:18:41;;;;;;;9.90;2.63;;;17.70;99.90;;;;;;5097282;28;20040;-45
2023/07/30 00:21:06;;;;;;;8.68;2.20;;;17.70;99.90;;;;;;5097136;28;20090;-46
2023/07/30 00:23:32;;;;;;;9.48;2.40;;;17.70;99.90;;;;;;5096876;28;20043;-46
2023/07/30 00:25:58;;;;;;;7.50;1.95;;;17.70;99.90;;;;;;5097109;28;20047;-46
2023/07/30 00:28:23;;;;;;;6.93;1.90;;;17.70;99.90;;;;;;5096943;28;20082;-45
2023/07/30 00:30:49;;;;;;;8.65;2.05;;;17.70;99.90;;;;;;5096981;28;20048;-45
2023/07/30 00:33:14;;;;;;;7.10;2.40;;;17.70;99.90;;;;;;5096787;28;20052;-45
2023/07/30 00:35:40;;;;;;;6.15;2.00;;;17.70;99.90;;;;;;5095820;28;20098;-45
2023/07/30 00:38:06;;;;;;;8.00;2.10;;;17.70;99.90;;;;;;5096564;28;20177;-46
2023/07/30 00:40:31;;;;;;;11.90;2.65;;;17.60;99.90;;;;;;5096779;28;20048;-46
2023/07/30 00:42:57;;;;;;;6.45;1.60;;;17.60;99.90;;;;;;5096703;28;20055;-45
2023/07/30 00:45:23;;;;;;;8.57;2.00;;;17.60;99.90;;;;;;5095408;28;20050;-46
2023/07/30 00:47:49;;;;;;;6.22;1.88;;;17.70;99.90;;;;;;5096533;28;20055;-45
2023/07/30 00:50:16;;;;;;;8.18;1.90;;;17.60;99.90;;;;;;5096587;28;20036;-45
2023/07/30 00:52:43;;;;;;;7.20;2.08;;;17.60;99.90;;;;;;5096345;28;20048;-46
2023/07/30 00:55:09;;;;;;;6.05;2.17;;;17.60;99.90;;;;;;5095279;28;20051;-45
2023/07/30 00:57:36;;;;;;;8.02;2.42;;;17.60;99.90;;;;;;5095268;28;20036;-48
2023/07/30 01:00:05;;;;;;;7.93;2.05;;;17.50;99.90;;;;;;5096431;28;20406;-45
2023/07/30 01:02:31;;;;;;;8.90;2.45;;;17.50;99.90;;;;;;5096676;28;20391;-45
2023/07/30 01:04:57;;;;;;;;;;;17.50;99.90;;;;;;5096444;28;20090;-45
2023/07/30 01:07:23;;;;;;;7.68;2.38;;;17.50;99.90;;;;;;5095926;28;20020;-45
2023/07/30 01:09:49;;;;;;;9.82;2.08;;;17.50;99.90;;;;;;5096228;28;20079;-46
2023/07/30 01:12:15;;;;;;;8.52;2.28;;;17.50;99.90;;;;;;5094661;28;20058;-45
2023/07/30 01:14:41;;;;;;;6.82;2.53;;;17.50;99.90;;;;;;5095095;28;20469;-45
2023/07/30 01:17:07;;;;;;;;;;;17.40;99.90;;;;;;5096586;28;20044;-44
2023/07/30 01:19:32;;;;;;;8.50;2.05;;;17.40;99.90;;;;;;5095911;28;20401;-45
2023/07/30 01:21:58;;;;;;;7.40;2.13;;;17.40;99.90;;;;;;5095668;28;20062;-46
2023/07/30 01:24:24;;;;;;;7.63;1.98;;;17.40;99.90;;;;;;5095871;28;20058;-45
2023/07/30 01:27:02;;;;;;;6.30;1.65;;;17.40;99.90;;;;;;5096112;28;20154;-46
2023/07/30 01:29:35;;;;;;;6.18;1.95;;;17.30;99.90;;;;;;5095854;28;20051;-46
2023/07/30 01:32:06;;;;;;;8.32;1.90;;;17.40;99.90;;;;;;5095751;28;20063;-46
2023/07/30 01:34:35;;;;;;;7.25;2.00;;;17.30;99.90;;;;;;5095737;28;20100;-44
2023/07/30 01:37:02;;;;;;;5.93;1.55;;;17.30;99.90;;;;;;5095677;28;20048;-45
2023/07/30 01:39:29;;;;;;;6.85;1.92;;;17.30;99.90;;;;;;5095930;28;20044;-45
2023/07/30 01:41:55;;;;;;;7.20;2.00;;;17.30;99.90;;;;;;5095521;28;20178;-44
2023/07/30 01:44:21;;;;;;;6.55;1.45;;;17.40;99.90;;;;;;5095552;28;20043;-46
2023/07/30 01:46:46;;;;;;;5.80;1.83;;;17.30;99.90;;;;;;5095456;28;20047;-46
2023/07/30 01:49:12;;;;;;;8.35;2.50;;;17.30;99.90;;;;;;5095261;28;20050;-45
2023/07/30 01:51:38;;;;;;;5.00;1.58;;;17.30;99.90;;;;;;5095407;28;20044;-46
2023/07/30 01:54:04;;;;;;;7.30;2.45;;;17.30;99.90;;;;;;5095677;28;20048;-45
2023/07/30 01:56:29;;;;;;;9.55;2.05;;;17.30;99.90;;;;;;5095487;28;20048;-45
2023/07/30 01:58:55;;;;;;;6.93;1.63;;;17.30;99.90;;;;;;5095088;28;20042;-47
2023/07/30 02:01:21;;;;;;;6.05;1.38;;;17.30;99.90;;;;;;5094095;28;20132;-45
2023/07/30 02:03:46;;;;;;;8.98;1.77;;;17.30;99.90;;;;;;5095072;28;20437;-45
2023/07/30 02:06:12;;;;;;;7.30;2.08;;;17.30;99.90;;;;;;5093968;28;20048;-45
2023/07/30 02:08:38;;;;;;;4.78;1.20;;;17.30;99.90;;;;;;5095057;28;20387;-45
2023/07/30 02:11:04;;;;;;;7.03;2.40;;;17.20;99.90;;;;;;5094994;28;20040;-45
2023/07/30 02:13:29;;;;;;;7.40;2.30;;;17.30;99.90;;;;;;5093464;28;20191;-46
2023/07/30 02:15:55;;;;;;;8.30;1.98;;;17.20;99.90;;;;;;5094831;28;20052;-46
2023/07/30 02:18:21;;;;;;;8.23;1.80;;;17.30;99.90;;;;;;5094806;28;20055;-46
2023/07/30 02:20:46;;;;;;;4.95;2.22;;;17.30;99.90;;;;;;5094923;28;20174;-45
2023/07/30 02:23:15;;;;;;;7.40;1.70;;;17.30;99.90;;;;;;5095172;28;20101;-44
2023/07/30 02:25:41;;;;;;;3.88;1.20;;;17.30;99.90;;;;;;5094647;28;20044;-45
2023/07/30 02:28:06;;;;;;;7.38;1.88;;;17.30;99.90;;;;;;5094429;28;20044;-46
2023/07/30 02:30:33;;;;;;;9.85;2.20;;;17.40;99.90;;;;;;5094621;28;20039;-46
2023/07/30 02:32:59;;;;;;;9.75;1.92;;;17.30;99.90;;;;;;5094509;28;20113;-45
2023/07/30 02:35:25;;;;;;;8.80;1.85;;;17.30;99.90;;;;;;5094545;28;20051;-46
2023/07/30 02:37:51;;;;;;;6.30;1.58;;;17.30;99.90;;;;;;5094513;28;20040;-46
2023/07/30 02:40:17;;;;;;;9.20;1.63;;;17.30;99.90;;;;;;5094565;28;20040;-45
2023/07/30 02:42:42;;;;;;;8.57;1.60;;;17.30;99.90;;;;;;5094294;28;20048;-46
2023/07/30 02:45:08;;;;;;;7.38;1.95;;;17.30;99.90;;;;;;5094364;28;20048;-45
2023/07/30 02:47:34;;;;;;;6.88;1.98;;;17.30;99.90;;;;;;5094119;28;20078;-45
2023/07/30 02:49:59;;;;;;;8.52;2.10;;;17.30;99.90;;;;;;5094340;28;20372;-45
2023/07/30 02:52:25;;;;;;;5.55;1.75;;;17.30;99.90;;;;;;5094253;28;20040;-45
2023/07/30 02:54:51;;;;;;;10.55;2.40;;;17.30;99.90;;;;;;5094237;28;20120;-45
2023/07/30 02:57:17;;;;;;;6.97;2.20;;;17.30;99.90;;;;;;5094355;28;20043;-45
2023/07/30 02:59:42;;;;;;;6.22;2.05;;;17.30;99.90;;;;;;5094168;28;20411;-46
2023/07/30 03:02:08;;;;;;;7.32;1.85;;;17.30;99.90;;;;;;5094082;28;20047;-46
2023/07/30 03:04:34;;;;;;;10.82;2.00;;;17.30;99.90;;;;;;5094135;28;20091;-45
2023/07/30 03:07:00;;;;;;;9.65;2.13;;;17.30;99.90;;;;;;5094038;28;20089;-45
2023/07/30 03:09:27;;;;;;;6.43;1.60;;;17.20;99.90;;;;;;5093951;28;20048;-45
2023/07/30 03:11:53;;;;;;;6.15;1.80;;;17.20;99.90;;;;;;5093691;28;20056;-45
2023/07/30 03:14:20;;;;;;;6.20;1.90;;;17.20;99.90;;;;;;5093819;28;20052;-44
2023/07/30 03:16:47;;;;;;;12.07;2.30;;;17.20;99.90;;;;;;5093697;28;20056;-46
2023/07/30 03:19:13;;;;;;;6.78;2.10;;;17.20;99.90;;;;;;5092735;28;20047;-45
2023/07/30 03:21:39;;;;;;;10.93;2.20;;;17.20;99.90;;;;;;5094021;28;20220;-46
2023/07/30 03:24:05;;;;;;;4.82;1.50;;;17.10;99.90;;;;;;5092630;28;20052;-45
2023/07/30 03:26:30;;;;;;;6.72;1.45;;;17.10;99.90;;;;;;5093916;28;20478;-45
2023/07/30 03:28:56;;;;;;;7.72;1.83;;;17.10;99.90;;;;;;5075788;28;20448;-46
2023/07/30 03:31:22;;;;;;;7.38;1.58;;;17.10;99.90;;;;;;5093657;28;20090;-46
2023/07/30 03:33:47;;;;;;;5.60;1.40;;;17.00;99.90;;;;;;5093824;28;20075;-45
2023/07/30 03:36:14;;;;;;;8.70;2.03;;;17.00;99.90;;;;;;5093805;28;20087;-45
2023/07/30 03:38:40;;;;;;;6.22;2.08;;;17.00;99.90;;;;;;5096495;28;20479;-47
2023/07/30 03:41:06;;;;;;;;;;;17.00;99.90;;;;;;5097369;28;20050;-46
2023/07/30 03:43:35;;;;;;;6.22;2.00;;;16.90;99.90;;;;;;5097737;28;20298;-46
2023/07/30 03:46:01;;;;;;;6.85;1.80;;;17.00;99.90;;;;;;5097533;28;20040;-46
2023/07/30 03:48:26;;;;;;;5.88;2.25;;;16.90;99.90;;;;;;5097731;28;20044;-44
2023/07/30 03:50:54;;;;;;;9.93;2.13;;;16.90;99.90;;;;;;5096540;28;20040;-46
2023/07/30 03:53:19;;;;;;;8.35;1.80;;;16.80;99.90;;;;;;5097563;28;20090;-45
2023/07/30 03:55:45;;;;;;;6.82;1.50;;;16.80;99.90;;;;;;5131061;27;20079;-45
2023/07/30 03:58:11;;;;;;;8.63;1.88;;;16.80;99.90;;;;;;5097533;28;20438;-46
2023/07/30 04:00:37;;;;;;;5.57;1.40;;;16.80;99.90;;;;;;5096217;28;20449;-44
2023/07/30 04:03:02;;;;;;;8.48;2.28;;;16.80;99.90;;;;;;5097486;28;20043;-46
2023/07/30 04:05:29;;;;;;;6.07;1.30;;;16.80;99.90;;;;;;5097421;28;20040;-46
2023/07/30 04:07:54;;;;;;;;;;;16.80;99.90;;;;;;5097768;28;20040;-46
2023/07/30 04:10:20;;;;;;;6.53;1.52;;;16.80;99.90;;;;;;5097402;28;19919;-45
2023/07/30 04:12:46;;;;;;;7.18;1.30;;;16.80;99.90;;;;;;5097198;28;20079;-47
2023/07/30 04:15:12;;;;;;;5.57;1.80;;;16.80;99.90;;;;;;5097177;28;20425;-46
2023/07/30 04:17:37;;;;;;;6.32;1.60;;;16.80;99.90;;;;;;5097352;28;20063;-46
2023/07/30 04:20:04;;;;;;;5.72;1.50;;;16.80;99.90;;;;;;5097347;28;20467;-46
2023/07/30 04:22:30;;;;;;;7.72;1.50;;;16.80;99.90;;;;;;5097179;28;20060;-46
2023/07/30 04:24:56;;;;;;;6.20;1.60;;;16.80;99.90;;;;;;5096970;28;20040;-47
2023/07/30 04:27:21;;;;;;;10.55;1.50;;;16.80;99.90;;;;;;5096014;28;20047;-47
2023/07/30 04:29:47;;;;;;;6.28;1.60;;;16.80;99.90;;;;;;5096780;28;20044;-47
2023/07/30 04:32:13;;;;;;;6.80;1.73;;;16.80;99.90;;;;;;5097007;28;20468;-47
2023/07/30 04:34:39;;;;;;;7.75;1.85;;;16.80;99.90;;;;;;5096944;28;20396;-46
2023/07/30 04:37:05;;;;;;;11.32;2.10;;;16.80;99.90;;;;;;5096921;28;20050;-45
2023/07/30 04:39:32;;;;;;;7.53;2.17;;;16.90;99.90;;;;;;5096784;28;20044;-45
2023/07/30 04:41:58;;;;;;;8.38;1.73;;;16.80;99.90;;;;;;5096653;28;20483;-45
2023/07/30 04:44:25;;;;;;;8.05;1.48;;;16.80;99.90;;;;;;5096496;28;20101;-46
2023/07/30 04:46:51;;;;;;;5.80;1.27;;;16.80;99.90;;;;;;5096690;28;20043;-45
2023/07/30 04:49:17;;;;;;;6.05;1.70;;;16.80;99.90;;;;;;5095181;28;20043;-46
2023/07/30 04:51:42;;;;;;;7.90;1.85;;;16.80;99.90;;;;;;5096505;28;20133;-46
2023/07/30 04:54:08;;;;;;;5.35;1.27;;;16.80;99.90;;;;;;5096411;28;20048;-46
2023/07/30 04:56:34;;;;;;;10.63;1.58;;;16.80;99.90;;;;;;5096475;28;20046;-46
2023/07/30 04:59:00;;;;;;;8.05;1.95;;;16.80;99.90;;;;;;5095097;28;20046;-44
2023/07/30 05:01:26;;;;;;;6.95;1.67;;;16.90;99.90;;;;;;5096465;28;20096;-46
2023/07/30 05:03:52;;;;;;;3.90;1.52;;;16.90;99.90;;;;;;5096496;28;20534;-44
2023/07/30 05:06:17;;;;;;;4.85;1.13;;;16.90;99.90;;;;;;5096255;28;20044;-45
2023/07/30 05:08:43;;;;;;;4.05;1.35;;;16.90;99.90;;;;;;5096016;28;20040;-46
2023/07/30 05:11:08;;;;;;;4.32;1.30;;;16.90;99.90;;;;;;5096042;28;20096;-45
2023/07/30 05:13:34;;;;;;;3.97;1.30;;;16.90;99.90;;;;;;5095711;28;20144;-46
2023/07/30 05:16:01;;;;;;;4.32;1.00;;;16.90;99.90;;;;;;5096162;28;20048;-45
2023/07/30 05:18:27;;;;;;;6.35;1.30;;;17.00;99.90;;;;;;5096232;28;20055;-45
2023/07/30 05:20:53;;;;;;;4.47;1.00;;;17.00;99.90;;;;;;5095538;28;20471;-45
2023/07/30 05:23:19;;;;;;;6.10;0.90;;;17.00;99.90;;;;;;5095754;28;20127;-46
2023/07/30 05:25:45;;;;;;;7.43;0.90;;;17.00;99.90;;;;;;5095784;28;20052;-46
2023/07/30 05:28:11;;;;;;;4.80;1.30;;;17.00;99.90;;;;;;5095651;28;20048;-44
2023/07/30 05:30:36;;;;;;;6.30;1.17;;;17.00;99.90;;;;;;5095929;28;20044;-45
2023/07/30 05:33:02;;;;;;;4.82;1.33;;;17.00;99.90;;;;;;5095913;28;20048;-45
2023/07/30 05:35:28;;;;;;;12.65;1.67;;;17.00;99.90;;;;;;5095660;28;20043;-44
2023/07/30 05:37:53;;;;;;;8.70;1.35;;;17.00;99.90;;;;;;5095636;28;20077;-45
2023/07/30 05:40:19;;;;;;;7.63;1.55;;;17.00;99.90;;;;;;5095591;28;20055;-45
2023/07/30 05:42:45;;;;;;;4.97;1.30;;;17.10;99.90;;;;;;5094215;28;20090;-45
2023/07/30 05:45:11;;;;;;;5.93;1.77;;;17.00;99.90;;;;;;5095583;28;20502;-45
2023/07/30 05:47:36;;;;;;;7.68;2.25;;;17.10;99.90;;;;;;5095472;28;20391;-46
2023/07/30 05:50:02;;;;;;;6.78;1.00;;;17.10;99.90;;;;;;5095432;28;20096;-45
2023/07/30 05:52:28;;;;;;;4.68;1.00;;;17.10;99.90;;;;;;5095408;28;20509;-46
2023/07/30 05:54:54;;;;;;;3.20;0.73;;;17.20;99.90;;;;;;5095278;28;20043;-45
2023/07/30 05:57:20;;;;;;;2.55;0.75;;;17.20;99.90;;;;;;5094074;28;20105;-46
2023/07/30 05:59:45;;;;;;;5.85;1.02;;;17.20;99.90;;;;;;5095260;28;20398;-46
2023/07/30 06:02:11;;;;;;;5.50;1.00;;;17.30;99.90;;;;;;5094846;28;20109;-46
2023/07/30 06:04:37;;;;;;;5.07;1.13;;;17.30;99.90;;;;;;5095058;28;20044;-45
2023/07/30 06:07:03;;;;;;;2.50;0.70;;;17.30;99.90;;;;;;5093964;28;20055;-46
2023/07/30 06:09:29;;;;;;;3.92;0.80;;;17.30;99.90;;;;;;5095023;28;20036;-46
2023/07/30 06:11:57;;;;;;;6.63;1.35;;;17.30;99.90;;;;;;5094855;28;20055;-45
2023/07/30 06:14:24;;;;;;;9.40;2.55;;;17.30;99.90;;;;;;5095040;28;20044;-45
2023/07/30 06:16:49;;;;;;;;;;;17.40;99.90;;;;;;5095401;28;20066;-45
2023/07/30 06:19:15;;;;;;;5.47;1.10;;;17.40;99.90;;;;;;5094873;28;20363;-46
2023/07/30 06:21:40;;;;;;;7.70;2.53;;;17.40;99.90;;;;;;5094872;28;20048;-45
2023/07/30 06:24:06;;;;;;;4.85;1.05;;;17.40;99.90;;;;;;5094649;28;20040;-46
2023/07/30 06:26:32;;;;;;;6.00;0.80;;;17.50;99.90;;;;;;5094489;28;20044;-46
2023/07/30 06:28:58;;;;;;;5.53;1.10;;;17.40;99.90;;;;;;5094676;28;20059;-46
2023/07/30 06:31:24;;;;;;;5.00;0.90;;;17.50;99.90;;;;;;5095055;28;20419;-45
2023/07/30 06:33:49;;;;;;;5.50;1.13;;;17.50;99.90;;;;;;5094744;28;20052;-45
2023/07/30 06:36:15;;;;;;;6.18;1.20;;;17.50;99.90;;;;;;5094659;28;20127;-45
2023/07/30 06:38:41;;;;;;;6.07;1.20;;;17.50;99.90;;;;;;5094756;28;20364;-46
2023/07/30 06:41:07;;;;;;;2.80;0.65;;;17.60;99.90;;;;;;5093291;28;20040;-46
2023/07/30 06:43:32;;;;;;;2.78;0.80;;;17.60;99.90;;;;;;5094540;28;20383;-48
2023/07/30 06:45:58;;;;;;;6.50;1.17;;;17.60;99.90;;;;;;5094502;28;20427;-47
2023/07/30 06:48:24;;;;;;;5.50;1.17;;;17.60;99.90;;;;;;5094172;28;20475;-45
2023/07/30 06:50:49;;;;;;;4.68;0.98;;;17.60;99.90;;;;;;5094432;28;20051;-45
2023/07/30 06:53:15;;;;;;;6.25;1.00;;;17.60;99.90;;;;;;5093040;28;20087;-47
2023/07/30 06:55:41;;;;;;;4.55;1.00;;;17.60;99.90;;;;;;5094166;28;20040;-44
2023/07/30 06:58:07;;;;;;;6.40;1.75;;;17.60;99.90;;;;;;5094577;28;20040;-46
2023/07/30 07:00:32;;;;;;;7.20;0.95;;;17.70;99.90;;;;;;5093068;28;20075;-46
2023/07/30 07:02:58;;;;;;;5.97;1.40;;;17.70;99.90;;;;;;5093309;28;20101;-45
2023/07/30 07:05:24;;;;;;;5.65;1.13;;;17.70;99.90;;;;;;5093970;28;20048;-46
2023/07/30 07:07:50;;;;;;;2.92;0.82;;;17.70;99.90;;;;;;5093914;28;20145;-46
2023/07/30 07:10:15;;;;;;;4.28;0.95;;;17.70;99.90;;;;;;5093892;28;20040;-44
2023/07/30 07:12:41;;;;;;;5.30;1.30;;;17.70;99.90;;;;;;5092742;28;20052;-45
2023/07/30 07:15:07;;;;;;;3.85;0.77;;;17.70;99.90;;;;;;5093984;28;20040;-47
2023/07/30 07:17:33;;;;;;;5.03;0.95;;;17.80;99.90;;;;;;5093909;28;20040;-46
2023/07/30 07:19:59;;;;;;;5.95;1.33;;;17.90;99.90;;;;;;5076309;28;20498;-47
2023/07/30 07:22:24;;;;;;;6.43;1.20;;;18.10;99.90;;;;;;5092809;28;20135;-45
2023/07/30 07:24:55;;;;;;;5.20;1.17;;;18.10;99.90;;;;;;5093540;28;20055;-47
2023/07/30 07:27:21;;;;;;;5.03;1.00;;;18.20;99.90;;;;;;5093814;28;20104;-45
2023/07/30 07:29:46;;;;;;;3.90;0.80;;;18.30;99.90;;;;;;5092810;28;20048;-45
2023/07/30 07:32:12;;;;;;;5.00;1.15;;;18.40;99.90;;;;;;5093802;28;20051;-49
2023/07/30 07:34:38;;;;;;;3.40;0.90;;;18.40;99.90;;;;;;5093800;28;20040;-46
2023/07/30 07:37:03;;;;;;;5.28;1.75;;;18.40;99.90;;;;;;5093602;28;20040;-46
2023/07/30 07:39:29;;;;;;;3.83;0.70;;;18.40;99.90;;;;;;5092759;28;20051;-44
2023/07/30 07:41:55;;;;;;;3.42;0.90;;;18.40;99.90;;;;;;5093672;28;20112;-46
2023/07/30 07:44:22;;;;;;;5.35;1.08;;;18.40;99.90;;;;;;5093654;28;20059;-46
2023/07/30 07:46:48;;;;;;;5.75;0.90;;;18.30;99.90;;;;;;5093632;28;20055;-45
2023/07/30 07:49:13;;;;;;;5.40;1.05;;;18.30;99.90;;;;;;5093415;28;20479;-46
2023/07/30 07:51:39;;;;;;;2.92;0.70;;;18.40;99.90;;;;;;5092496;28;20059;-44
2023/07/30 07:54:05;;;;;;;3.78;0.80;;;18.40;99.90;;;;;;5093606;28;20131;-46
2023/07/30 07:56:31;;;;;;;2.67;0.90;;;18.50;99.90;;;;;;5093316;28;20040;-47
2023/07/30 07:58:57;;;;;;;;;;;18.60;99.90;;;;;;5093925;28;20086;-47
2023/07/30 08:01:23;;;;;;;6.70;1.00;;;18.70;99.90;;;;;;5093536;28;20374;-44
2023/07/30 08:03:48;;;;;;;4.28;0.95;;;18.80;99.90;;;;;;5092432;28;20055;-46
2023/07/30 08:06:14;;;;;;;4.03;0.80;;;18.80;99.90;;;;;;5093358;28;20086;-46
2023/07/30 08:08:40;;;;;;;4.75;0.82;;;18.80;99.90;;;;;;5093141;28;20368;-46
2023/07/30 08:11:09;;;;;;;4.13;0.90;;;18.80;99.90;;;;;;5093321;28;20155;-45
2023/07/30 08:13:35;;;;;;;5.70;1.13;;;18.80;99.90;;;;;;5093171;28;20498;-44
2023/07/30 08:16:01;;;;;;;;;;;18.80;99.90;;;;;;5093854;28;20395;-47
2023/07/30 08:18:27;;;;;;;3.30;0.52;;;18.80;99.90;;;;;;5093464;28;19985;-46
2023/07/30 08:20:53;;;;;;;5.30;1.00;;;18.80;99.90;;;;;;5091933;28;20548;-47
2023/07/30 08:23:19;;;;;;;6.22;1.00;;;18.70;99.90;;;;;;5093636;28;20193;-44
2023/07/30 08:25:45;;;;;;;6.60;0.82;;;18.70;99.90;;;;;;5095901;28;20044;-46
2023/07/30 08:28:10;;;;;;;4.03;0.60;;;18.70;99.90;;;;;;5096918;28;20044;-46
2023/07/30 08:30:36;;;;;;;2.90;0.77;;;18.70;99.90;;;;;;5096894;28;20044;-47
2023/07/30 08:33:02;;;;;;;4.75;0.70;;;18.70;99.90;;;;;;5096843;28;20123;-46
2023/07/30 08:35:28;;;;;;;4.82;1.00;;;18.70;99.90;;;;;;5079017;28;20051;-44
2023/07/30 08:37:54;;;;;;;2.45;0.57;;;18.70;99.90;;;;;;5096785;28;20044;-45
2023/07/30 08:40:23;;;;;;;3.08;0.57;;;18.70;99.90;;;;;;5095896;28;20048;-47
2023/07/30 08:42:53;;;;;;;3.60;0.68;;;18.70;99.90;;;;;;5096800;28;20044;-45
2023/07/30 08:45:19;;;;;;;3.03;0.60;;;18.60;99.90;;;;;;5096720;28;20083;-44
2023/07/30 08:47:46;;;;;;;;;;;18.60;99.90;;;;;;5096834;28;20040;-45
2023/07/30 08:50:11;;;;;;;2.40;0.50;;;18.60;99.90;;;;;;5096521;28;19926;-47
2023/07/30 08:52:37;;;;;;;2.30;0.70;;;18.50;99.90;;;;;;5096415;28;20036;-46
2023/07/30 08:55:04;;;;;;;3.53;0.85;;;18.50;99.90;;;;;;5096550;28;20052;-45
2023/07/30 08:57:31;;;;;;;6.53;0.60;;;18.50;99.90;;;;;;5096508;28;20044;-44
2023/07/30 09:00:08;;;;;;;4.90;0.55;;;18.50;99.90;;;;;;5095629;28;20126;-46
2023/07/30 09:02:39;;;;;;;3.13;0.73;;;18.50;99.90;;;;;;5096496;28;20104;-45
2023/07/30 09:05:06;;;;;;;3.28;0.82;;;18.50;99.90;;;;;;5096266;28;20048;-46
2023/07/30 09:07:31;;;;;;;4.82;0.90;;;18.50;99.90;;;;;;5096200;28;20181;-47
2023/07/30 09:09:57;;;;;;;5.30;0.80;;;18.50;99.90;;;;;;5095320;28;20126;-51
2023/07/30 09:12:41;;;;;;;6.32;0.82;;;18.50;99.90;;;;;;5096559;28;20055;-46
2023/07/30 09:15:07;;;;;;;4.18;1.10;;;18.60;99.90;;;;;;5095326;28;20044;-44
2023/07/30 09:17:37;;;;;;;4.85;0.60;;;18.60;99.90;;;;;;5095895;28;20052;-48
2023/07/30 09:20:04;;;;;;;4.07;0.63;;;18.60;99.90;;;;;;5096148;28;20113;-46
2023/07/30 09:22:36;;;;;;;4.00;0.80;;;18.60;99.90;;;;;;5096105;28;20048;-47
2023/07/30 09:25:02;;;;;;;4.32;0.77;;;18.60;99.90;;;;;;5095937;28;20080;-44
2023/07/30 09:27:28;;;;;;;6.20;1.60;;;18.70;99.90;;;;;;5095877;28;20044;-45
2023/07/30 09:29:58;;;;;;;3.25;0.40;;;18.70;99.90;;;;;;5095845;28;20126;-46
2023/07/30 09:32:29;;;;;;;2.95;0.55;;;18.60;99.90;;;;;;5094581;28;20044;-48
2023/07/30 09:34:55;;;;;;;3.00;1.02;;;18.50;99.90;;;;;;5095299;28;20043;-44
2023/07/30 09:37:21;;;;;;;4.50;1.52;;;18.50;99.90;;;;;;5094636;28;20468;-44
2023/07/30 09:39:49;;;;;;;1.15;0.30;;;18.40;99.90;;;;;;5095827;28;20048;-46
2023/07/30 09:42:15;;;;;;;4.35;0.52;;;18.40;99.90;;;;;;5095675;28;20448;-44
2023/07/30 09:44:41;;;;;;;3.00;0.60;;;18.30;99.90;;;;;;5094263;28;20044;-44
2023/07/30 09:47:12;;;;;;;2.55;0.50;;;18.30;99.90;;;;;;5095433;28;20044;-46
2023/07/30 09:49:38;;;;;;;2.92;0.60;;;18.30;99.90;;;;;;5095440;28;20135;-45
2023/07/30 09:52:07;;;;;;;5.72;0.68;;;18.30;99.90;;;;;;5095415;28;20083;-45
2023/07/30 09:54:33;;;;;;;3.90;0.43;;;18.30;99.90;;;;;;5094040;28;20044;-45
2023/07/30 09:56:59;;;;;;;4.53;0.47;;;18.30;99.90;;;;;;5095452;28;20501;-45
2023/07/30 09:59:24;;;;;;;1.90;0.45;;;18.40;99.90;;;;;;5095217;28;20039;-46
2023/07/30 10:01:55;;;;;;;1.05;0.40;;;18.40;99.90;;;;;;5095161;28;20479;-45
2023/07/30 10:04:22;;;;;;;2.13;0.45;;;18.50;99.90;;;;;;5093943;28;20051;-44
2023/07/30 10:07:08;;;;;;;2.60;0.43;;;18.60;99.90;;;;;;5095428;28;20061;-44
2023/07/30 10:09:43;;;;;;;1.98;0.50;;;18.60;99.90;;;;;;5095115;28;20044;-44
2023/07/30 10:12:23;;;;;;;1.83;0.40;;;18.60;99.90;;;;;;5095275;28;20059;-45
2023/07/30 10:14:50;;;;;;;2.28;0.60;;;18.60;99.90;;;;;;5095306;28;20064;-46
2023/07/30 10:17:17;;;;;;;1.92;0.40;;;18.60;99.90;;;;;;5093913;28;20048;-46
2023/07/30 10:19:48;;;;;;;4.55;1.15;;;18.60;99.90;;;;;;5094757;28;20059;-47
2023/07/30 10:22:14;;;;;;;2.45;0.40;;;18.60;99.90;;;;;;5094692;28;20082;-46
2023/07/30 10:24:55;;;;;;;3.00;0.40;;;18.60;99.90;;;;;;5094836;28;20383;-46
2023/07/30 10:27:24;;;;;;;2.80;0.40;;;18.60;99.90;;;;;;5094917;28;20044;-49
2023/07/30 10:30:14;;;;;;;1.20;0.45;;;18.60;99.90;;;;;;5094690;28;20044;-44
2023/07/30 10:32:55;;;;;;;3.10;0.40;;;18.80;99.90;;;;;;5094774;28;20044;-45
2023/07/30 10:35:43;;;;;;;3.85;0.50;;;18.90;99.90;;;;;;5094647;28;20044;-44
2023/07/30 10:38:24;;;;;;;2.45;0.40;;;19.10;99.90;;;;;;5094902;28;20063;-46
2023/07/30 10:41:11;;;;;;;4.32;0.88;;;19.20;99.90;;;;;;5094473;28;20059;-45
2023/07/30 10:43:42;;;;;;;5.97;1.40;;;19.10;99.90;;;;;;5094981;28;20066;-48
2023/07/30 10:46:09;;;;;;;3.08;0.60;;;19.00;99.90;;;;;;5094568;28;20044;-46
2023/07/30 10:48:41;;;;;;;2.85;0.47;;;18.90;99.90;;;;;;5094164;28;20083;-44
2023/07/30 10:51:09;;;;;;;3.42;0.70;;;18.80;99.90;;;;;;5094271;28;20040;-46
2023/07/30 10:53:36;;;;;;;2.83;0.70;;;18.80;99.90;;;;;;5094133;28;20451;-48
2023/07/30 10:56:06;;;;;;;4.25;0.80;;;18.80;99.90;;;;;;5094241;28;20047;-45
2023/07/30 10:58:34;;;;;;;4.82;0.80;;;18.90;99.90;;;;;;5094141;28;20040;-48
2023/07/30 11:01:07;;;;;;;1.70;0.68;;;19.10;99.90;;;;;;5093976;28;20495;-46
2023/07/30 11:03:34;;;;;;;3.53;0.77;;;19.30;99.90;;;;;;5094346;28;20074;-45
2023/07/30 11:06:03;;;;;;;4.72;1.00;;;19.50;99.90;;;;;;5094099;28;20479;-49
2023/07/30 11:08:40;;;;;;;8.75;2.17;;;19.80;99.90;;;;;;5094073;28;20040;-48
2023/07/30 11:11:08;;;;;;;4.68;1.35;;;20.00;99.90;;;;;;5094008;28;20052;-45
2023/07/30 11:13:42;;;;;;;7.80;1.48;;;20.20;99.90;;;;;;5093741;28;20403;-47
2023/07/30 11:16:10;;;;;;;4.88;1.10;;;20.50;99.90;;;;;;5093856;28;20052;-48
2023/07/30 11:18:37;;;;;;;2.40;0.40;;;20.70;99.90;;;;;;5093956;28;20048;-45
2023/07/30 11:21:07;;;;;;;2.95;0.82;;;20.70;99.90;;;;;;5094282;28;20102;-44
2023/07/30 11:23:34;;;;;;;3.22;0.50;;;20.70;99.90;;;;;;5093921;28;20040;-45
2023/07/30 11:26:05;;;;;;;4.57;0.57;;;20.80;99.90;;;;;;5093257;28;20123;-45
2023/07/30 11:28:32;;;;;;;2.70;0.77;;;21.00;99.90;;;;;;5093883;28;20044;-46
2023/07/30 11:31:02;;;;;;;2.65;0.77;;;21.10;99.90;;;;;;5093647;28;20047;-45
2023/07/30 11:33:28;;;;;;;4.32;0.80;;;21.10;99.90;;;;;;5093532;28;20052;-44
2023/07/30 11:35:57;;;;;;;5.32;0.80;;;21.10;99.90;;;;;;5093801;28;20044;-45
2023/07/30 11:38:26;;;;;;;2.90;0.57;;;21.10;99.90;;;;;;5093759;28;20498;-48
2023/07/30 11:40:52;;;;;;;1.83;0.43;;;21.30;99.90;;;;;;5093726;28;20122;-46
2023/07/30 11:43:19;;;;;;;3.40;0.40;;;21.40;99.90;;;;;;5093677;28;20052;-45
2023/07/30 11:45:44;;;;;;;;;;;21.60;99.90;;;;;;5093881;28;20132;-45
2023/07/30 11:48:11;;;;;;;1.95;0.40;;;21.80;99.90;;;;;;5093574;28;19963;-45
2023/07/30 11:50:51;;;;;;;2.00;0.52;;;22.00;99.90;;;;;;5092492;28;20047;-45
2023/07/30 11:53:18;;;;;;;2.83;0.70;;;22.00;99.90;;;;;;5093581;28;20130;-45
2023/07/30 11:55:45;;;;;;;6.47;0.90;;;21.90;99.90;;;;;;5093480;28;20048;-47
2023/07/30 11:58:12;;;;;;;3.55;0.90;;;21.70;99.90;;;;;;5092470;28;20133;-45
2023/07/30 12:00:42;;;;;;;3.80;0.60;;;21.60;99.90;;;;;;5097362;28;20048;-44
2023/07/30 12:03:14;;;;;;;3.60;0.70;;;21.40;99.90;;;;;;5097835;28;20052;-45
2023/07/30 12:05:40;;;;;;;1.77;0.88;;;21.30;99.90;;;;;;5097559;28;20047;-44
2023/07/30 12:08:16;;;;;;;5.60;0.60;;;21.20;99.90;;;;;;5097310;28;20044;-48
2023/07/30 12:10:49;;;;;;;5.23;0.80;;;21.10;99.90;;;;;;5097477;28;20044;-48
2023/07/30 12:13:19;;;;;;;3.10;0.65;;;20.90;99.90;;;;;;5097531;28;20480;-46
2023/07/30 12:15:52;;;;;;;2.67;0.45;;;20.90;99.90;;;;;;5097268;28;20059;-45
2023/07/30 12:18:18;;;;;;;4.05;0.80;;;20.80;99.90;;;;;;5097356;28;20040;-44
2023/07/30 12:20:44;;;;;;;3.78;0.47;;;20.70;99.90;;;;;;5097154;28;20047;-48
2023/07/30 12:23:10;;;;;;;3.35;0.63;;;20.70;99.90;;;;;;5097116;28;20044;-45
2023/07/30 12:25:35;;;;;;;2.75;0.50;;;20.60;99.90;;;;;;5096882;28;20500;-44
2023/07/30 12:28:01;;;;;;;6.03;0.68;;;20.60;99.90;;;;;;5097309;28;20465;-47
2023/07/30 12:30:27;;;;;;;2.13;0.40;;;20.50;99.90;;;;;;5096941;28;20056;-46
2023/07/30 12:32:54;;;;;;;2.70;0.60;;;20.50;99.90;;;;;;5097076;28;20048;-46
2023/07/30 12:35:20;;;;;;;1.80;0.70;;;20.50;99.90;;;;;;5096789;28;20052;-44
2023/07/30 12:37:45;;;;;;;1.58;0.35;;;20.50;99.90;;;;;;5096712;28;20043;-47
2023/07/30 12:40:11;;;;;;;6.38;0.50;;;20.70;99.90;;;;;;5096617;28;20048;-45
2023/07/30 12:42:37;;;;;;;3.70;0.45;;;20.90;99.90;;;;;;5097122;28;20050;-45
2023/07/30 12:45:03;;;;;;;3.47;0.70;;;21.10;99.90;;;;;;5096808;28;20044;-47
2023/07/30 12:47:29;;;;;;;2.83;0.50;;;21.20;99.90;;;;;;5095750;28;20142;-46